createdAt,value
2023-03-03T00:01:17.761Z,12.83
2023-03-03T00:03:44.586Z,15.43
2023-03-03T00:06:14.149Z,12.00
2023-03-03T00:08:41.225Z,12.53
2023-03-03T00:11:08.079Z,13.40
2023-03-03T00:13:43.912Z,13.87
2023-03-03T00:16:17.134Z,12.60
2023-03-03T00:18:46.738Z,14.93
2023-03-03T00:21:33.151Z,15.07
2023-03-03T00:24:44.306Z,13.00
2023-03-03T00:27:34.430Z,15.40
2023-03-03T00:30:01.222Z,13.70
2023-03-03T00:32:43.874Z,15.17
2023-03-03T00:35:30.195Z,14.03
2023-03-03T00:38:00.088Z,16.33
2023-03-03T00:40:37.946Z,13.97
2023-03-03T00:43:28.111Z,14.63
2023-03-03T00:45:56.399Z,14.10
2023-03-03T00:48:25.955Z,15.10
2023-03-03T00:50:54.928Z,15.80
2023-03-03T00:53:23.732Z,14.80
2023-03-03T00:55:51.705Z,15.17
2023-03-03T00:58:21.713Z,15.17
2023-03-03T01:00:54.098Z,16.03
2023-03-03T01:03:26.480Z,13.60
2023-03-03T01:05:54.607Z,16.20
2023-03-03T01:08:22.202Z,15.33
2023-03-03T01:10:58.764Z,16.00
2023-03-03T01:13:30.166Z,16.77
2023-03-03T01:15:57.681Z,13.63
2023-03-03T01:18:24.534Z,14.20
2023-03-03T01:20:51.476Z,15.03
2023-03-03T01:23:18.084Z,15.30
2023-03-03T01:25:44.722Z,15.13
2023-03-03T01:28:11.649Z,13.33
2023-03-03T01:30:38.307Z,13.90
2023-03-03T01:33:04.960Z,13.37
2023-03-03T01:35:31.788Z,14.43
2023-03-03T01:37:59.022Z,14.20
2023-03-03T01:40:29.727Z,13.30
2023-03-03T01:42:58.950Z,13.73
2023-03-03T01:45:29.658Z,14.10
2023-03-03T01:48:11.061Z,14.50
2023-03-03T01:51:15.989Z,13.40
2023-03-03T02:10:33.205Z,12.60
2023-03-03T02:13:00.047Z,12.27
2023-03-03T02:15:37.839Z,13.40
2023-03-03T02:18:09.399Z,13.70
2023-03-03T02:21:03.101Z,14.70
2023-03-03T02:23:51.651Z,12.70
2023-03-03T02:26:23.052Z,12.20
2023-03-03T02:28:54.521Z,14.33
2023-03-03T02:31:24.116Z,12.30
2023-03-03T02:33:52.718Z,12.67
2023-03-03T02:36:24.936Z,13.83
2023-03-03T02:39:12.994Z,13.53
2023-03-03T02:41:58.892Z,13.50
2023-03-03T02:44:32.725Z,13.13
2023-03-03T02:47:00.081Z,12.97
2023-03-03T02:49:32.220Z,14.83
2023-03-03T02:52:00.664Z,15.00
2023-03-03T02:54:30.229Z,14.07
2023-03-03T02:56:58.656Z,12.80
2023-03-03T02:59:26.790Z,14.57
2023-03-03T03:01:55.215Z,14.87
2023-03-03T03:04:27.779Z,15.10
2023-03-03T03:06:55.938Z,13.47
2023-03-03T03:09:25.586Z,14.13
2023-03-03T03:11:53.729Z,14.27
2023-03-03T03:14:23.999Z,13.47
2023-03-03T03:16:52.354Z,13.67
2023-03-03T03:19:19.372Z,14.90
2023-03-03T03:21:46.610Z,12.83
2023-03-03T03:24:13.292Z,15.53
2023-03-03T03:26:44.398Z,13.80
2023-03-03T03:29:11.156Z,16.77
2023-03-03T03:31:39.298Z,14.77
2023-03-03T03:34:05.997Z,13.37
2023-03-03T03:36:33.631Z,11.07
2023-03-03T03:39:02.854Z,14.07
2023-03-03T03:41:30.340Z,13.90
2023-03-03T03:43:56.897Z,14.87
2023-03-03T03:46:24.261Z,11.97
2023-03-03T03:48:50.933Z,20.67
2023-03-03T03:51:19.815Z,19.53
2023-03-03T03:53:46.528Z,16.43
2023-03-03T03:56:13.183Z,16.87
2023-03-03T03:58:42.128Z,14.47
2023-03-03T04:01:11.104Z,14.17
2023-03-03T04:03:43.390Z,14.33
2023-03-03T04:06:13.145Z,12.90
2023-03-03T04:08:39.793Z,13.47
2023-03-03T04:11:07.454Z,13.23
2023-03-03T04:13:35.292Z,12.30
2023-03-03T04:16:05.223Z,13.03
2023-03-03T04:18:31.911Z,14.83
2023-03-03T04:20:59.241Z,13.50
2023-03-03T04:23:27.024Z,13.70
2023-03-03T04:25:53.867Z,12.50
2023-03-03T04:28:22.272Z,12.80
2023-03-03T04:30:50.236Z,13.53
2023-03-03T04:33:18.538Z,12.43
2023-03-03T04:35:46.101Z,13.93
2023-03-03T04:38:12.973Z,11.60
2023-03-03T04:40:41.878Z,14.47
2023-03-03T04:43:10.101Z,13.80
2023-03-03T04:45:37.304Z,14.27
2023-03-03T04:48:04.577Z,13.73
2023-03-03T04:50:31.768Z,14.60
2023-03-03T04:52:58.458Z,13.83
2023-03-03T04:55:25.261Z,13.50
2023-03-03T04:57:51.946Z,14.93
2023-03-03T05:00:19.442Z,15.07
2023-03-03T05:02:48.714Z,15.07
2023-03-03T05:05:15.463Z,14.20
2023-03-03T05:07:42.064Z,15.43
2023-03-03T05:10:09.325Z,16.10
2023-03-03T05:12:36.106Z,17.87
2023-03-03T05:15:02.976Z,16.70
2023-03-03T05:17:29.574Z,15.47
2023-03-03T05:19:57.323Z,18.70
2023-03-03T05:22:24.474Z,18.27
2023-03-03T05:24:51.322Z,16.53
2023-03-03T05:27:18.159Z,15.63
2023-03-03T05:29:44.952Z,19.43
2023-03-03T05:32:11.568Z,17.20
2023-03-03T05:34:40.697Z,18.90
2023-03-03T05:37:07.329Z,19.87
2023-03-03T05:39:35.139Z,21.37
2023-03-03T05:42:02.013Z,21.33
2023-03-03T05:44:28.743Z,19.63
2023-03-03T05:46:56.666Z,21.43
2023-03-03T05:49:23.399Z,20.77
2023-03-03T05:51:50.013Z,20.90
2023-03-03T05:54:16.649Z,20.10
2023-03-03T05:56:43.292Z,20.30
2023-03-03T05:59:09.921Z,20.13
2023-03-03T06:01:36.580Z,19.40
2023-03-03T06:04:03.398Z,17.37
2023-03-03T06:06:30.138Z,19.63
2023-03-03T06:08:57.327Z,21.90
2023-03-03T06:11:24.158Z,21.97
2023-03-03T06:13:51.141Z,19.47
2023-03-03T06:16:18.200Z,20.53
2023-03-03T06:18:44.879Z,20.60
2023-03-03T06:21:11.547Z,18.70
2023-03-03T06:23:38.140Z,18.53
2023-03-03T06:26:04.949Z,20.27
2023-03-03T06:28:31.555Z,19.77
2023-03-03T06:30:58.206Z,18.90
2023-03-03T06:33:24.841Z,18.63
2023-03-03T06:35:52.887Z,23.27
2023-03-03T06:38:20.058Z,19.93
2023-03-03T06:40:47.603Z,23.93
2023-03-03T06:43:14.503Z,26.07
2023-03-03T06:45:41.258Z,24.90
2023-03-03T06:48:07.932Z,23.53
2023-03-03T06:50:34.952Z,22.47
2023-03-03T06:53:21.856Z,23.77
2023-03-03T06:55:48.730Z,22.73
2023-03-03T06:58:20.322Z,25.43
2023-03-03T07:01:10.283Z,23.40
2023-03-03T07:03:36.869Z,24.00
2023-03-03T07:06:16.724Z,23.60
2023-03-03T07:08:43.315Z,27.67
2023-03-03T07:11:15.638Z,27.30
2023-03-03T07:13:46.487Z,26.37
2023-03-03T07:16:15.298Z,24.70
2023-03-03T07:18:50.939Z,26.70
2023-03-03T07:21:21.034Z,25.47
2023-03-03T07:23:50.448Z,23.43
2023-03-03T07:26:33.266Z,25.67
2023-03-03T07:29:24.212Z,25.37
2023-03-03T07:31:51.308Z,25.40
2023-03-03T07:34:22.318Z,26.50
2023-03-03T07:36:53.523Z,25.13
2023-03-03T07:39:30.516Z,24.90
2023-03-03T07:42:09.534Z,24.67
2023-03-03T07:44:38.047Z,24.77
2023-03-03T07:47:18.842Z,21.90
2023-03-03T07:49:46.775Z,24.30
2023-03-03T07:52:43.338Z,21.43
2023-03-03T07:55:32.030Z,23.47
2023-03-03T07:58:12.747Z,23.83
2023-03-03T08:00:39.317Z,23.00
2023-03-03T08:03:17.000Z,20.67
2023-03-03T08:05:47.002Z,33.80
2023-03-03T08:08:31.030Z,22.60
2023-03-03T08:10:59.897Z,20.20
2023-03-03T08:13:39.645Z,21.47
2023-03-03T08:16:09.402Z,19.07
2023-03-03T08:18:39.818Z,20.97
2023-03-03T08:21:14.590Z,21.00
2023-03-03T08:23:41.452Z,19.50
2023-03-03T08:26:08.227Z,17.90
2023-03-03T08:28:34.873Z,20.07
2023-03-03T08:31:15.271Z,20.13
2023-03-03T08:33:47.061Z,19.00
2023-03-03T08:36:14.642Z,21.07
2023-03-03T08:38:41.567Z,20.27
2023-03-03T08:41:08.578Z,19.17
2023-03-03T08:43:35.295Z,20.70
2023-03-03T08:46:03.749Z,20.50
2023-03-03T08:48:30.616Z,18.60
2023-03-03T08:50:58.038Z,17.63
2023-03-03T08:53:24.724Z,21.97
2023-03-03T08:55:51.496Z,21.37
2023-03-03T08:58:21.197Z,19.60
2023-03-03T09:00:50.240Z,17.93
2023-03-03T09:03:17.804Z,18.20
2023-03-03T09:05:45.183Z,19.93
2023-03-03T09:08:12.179Z,18.50
2023-03-03T09:10:39.142Z,20.53
2023-03-03T09:13:18.948Z,20.00
2023-03-03T09:15:48.995Z,16.93
2023-03-03T09:18:17.617Z,19.40
2023-03-03T09:20:53.047Z,18.70
2023-03-03T09:23:35.000Z,16.73
2023-03-03T09:26:19.878Z,17.20
2023-03-03T09:28:46.520Z,16.73
2023-03-03T09:31:54.557Z,16.20
2023-03-03T09:34:27.886Z,16.23
2023-03-03T09:36:55.935Z,15.67
2023-03-03T09:39:25.557Z,15.13
2023-03-03T09:42:02.941Z,16.50
2023-03-03T09:44:51.343Z,16.57
2023-03-03T09:47:55.972Z,17.00
2023-03-03T09:50:34.556Z,17.37
2023-03-03T09:53:04.073Z,16.83
2023-03-03T09:55:47.098Z,15.73
2023-03-03T09:58:23.152Z,15.30
2023-03-03T10:01:13.612Z,16.27
2023-03-03T10:03:52.486Z,16.37
2023-03-03T10:06:40.237Z,16.00
2023-03-03T10:09:25.440Z,17.57
2023-03-03T10:11:57.804Z,16.77
2023-03-03T10:14:43.283Z,16.70
2023-03-03T10:17:17.076Z,15.40
2023-03-03T10:19:55.892Z,18.23
2023-03-03T10:22:28.662Z,16.23
2023-03-03T10:25:16.609Z,16.60
2023-03-03T10:28:04.976Z,14.67
2023-03-03T10:31:02.555Z,15.67
2023-03-03T10:34:16.841Z,15.93
2023-03-03T10:36:55.325Z,14.10
2023-03-03T10:39:29.841Z,14.87
2023-03-03T10:42:30.586Z,15.27
2023-03-03T10:45:35.407Z,14.60
2023-03-03T10:48:14.163Z,15.30
2023-03-03T10:51:00.017Z,14.97
2023-03-03T10:53:40.407Z,16.70
2023-03-03T10:56:51.802Z,15.80
2023-03-03T10:59:36.261Z,14.03
2023-03-03T11:02:25.257Z,12.83
2023-03-03T11:05:00.201Z,14.73
2023-03-03T11:07:42.771Z,14.47
2023-03-03T11:10:09.459Z,14.00
2023-03-03T11:12:47.688Z,14.57
2023-03-03T11:15:35.992Z,12.27
2023-03-03T11:18:30.768Z,13.30
2023-03-03T11:21:19.318Z,14.17
2023-03-03T11:23:52.009Z,14.90
2023-03-03T11:26:24.496Z,13.63
2023-03-03T11:29:07.797Z,13.00
2023-03-03T11:31:48.574Z,13.87
2023-03-03T11:34:23.566Z,12.80
2023-03-03T11:37:01.830Z,12.27
2023-03-03T11:39:28.537Z,14.83
2023-03-03T11:42:24.024Z,13.60
2023-03-03T11:45:02.327Z,14.40
2023-03-03T11:47:38.481Z,12.53
2023-03-03T11:50:16.026Z,13.57
2023-03-03T11:53:05.563Z,14.30
2023-03-03T11:55:41.333Z,13.60
2023-03-03T11:58:25.038Z,13.33
2023-03-03T12:00:58.687Z,14.40
2023-03-03T12:03:39.503Z,12.07
2023-03-03T12:06:06.328Z,12.13
2023-03-03T12:09:14.132Z,12.90
2023-03-03T12:11:59.939Z,12.43
2023-03-03T12:14:38.543Z,12.40
2023-03-03T12:17:19.750Z,13.80
2023-03-03T12:20:17.366Z,12.73
2023-03-03T12:23:06.463Z,12.20
2023-03-03T12:25:44.206Z,11.60
2023-03-03T12:28:25.583Z,12.53
2023-03-03T12:31:04.954Z,11.80
2023-03-03T12:33:38.000Z,11.77
2023-03-03T12:36:41.808Z,11.40
2023-03-03T12:39:34.095Z,12.30
2023-03-03T12:42:22.149Z,12.17
2023-03-03T12:45:20.186Z,12.83
2023-03-03T12:47:58.810Z,12.57
2023-03-03T12:50:48.907Z,10.43
2023-03-03T12:53:36.917Z,11.60
2023-03-03T12:56:05.148Z,11.70
2023-03-03T12:59:14.272Z,12.57
2023-03-03T13:01:56.666Z,11.80
2023-03-03T13:04:47.117Z,11.23
2023-03-03T13:07:28.946Z,11.47
2023-03-03T13:10:30.996Z,12.50
2023-03-03T13:13:17.538Z,14.47
2023-03-03T13:15:55.505Z,11.70
2023-03-03T13:18:34.549Z,12.97
2023-03-03T13:21:24.324Z,12.13
2023-03-03T13:24:21.365Z,11.13
2023-03-03T13:26:57.858Z,13.37
2023-03-03T13:29:33.540Z,12.50
2023-03-03T13:32:05.444Z,12.47
2023-03-03T13:34:57.003Z,11.50
2023-03-03T13:37:29.828Z,13.67
2023-03-03T13:40:16.715Z,15.07
2023-03-03T13:42:50.025Z,13.87
2023-03-03T13:45:31.147Z,13.57
2023-03-03T13:48:06.928Z,12.60
2023-03-03T13:50:38.525Z,12.70
2023-03-03T13:53:53.201Z,11.83
2023-03-03T13:56:35.106Z,14.67
2023-03-03T13:59:20.356Z,13.20
2023-03-03T14:02:01.485Z,13.27
2023-03-03T14:04:34.293Z,12.33
2023-03-03T14:07:08.973Z,13.87
2023-03-03T14:09:44.172Z,12.60
2023-03-03T14:12:33.757Z,13.13
2023-03-03T14:15:27.908Z,12.50
2023-03-03T14:18:14.723Z,14.40
2023-03-03T14:20:47.163Z,12.70
2023-03-03T14:23:25.230Z,11.77
2023-03-03T14:25:59.141Z,13.20
2023-03-03T14:28:29.426Z,13.97
2023-03-03T14:30:58.196Z,14.17
2023-03-03T14:33:32.267Z,13.63
2023-03-03T14:35:58.995Z,12.20
2023-03-03T14:38:47.056Z,11.80
2023-03-03T14:41:16.172Z,13.60
2023-03-03T14:43:47.680Z,12.37
2023-03-03T14:46:33.519Z,13.70
2023-03-03T14:49:14.637Z,13.27
2023-03-03T14:51:47.575Z,10.27
2023-03-03T14:54:47.903Z,12.30
2023-03-03T14:57:18.619Z,12.30
2023-03-03T15:00:14.965Z,12.40
2023-03-03T15:02:59.900Z,12.80
2023-03-03T15:05:28.645Z,11.13
2023-03-03T15:07:59.398Z,11.60
2023-03-03T15:10:38.015Z,12.10
2023-03-03T15:13:30.854Z,11.90
2023-03-03T15:16:00.593Z,12.50
2023-03-03T15:18:28.534Z,11.13
2023-03-03T15:21:06.922Z,10.40
2023-03-03T15:23:45.268Z,9.50
2023-03-03T15:26:28.411Z,9.87
2023-03-03T15:29:07.267Z,9.27
2023-03-03T15:31:40.925Z,8.50
2023-03-03T15:34:32.305Z,8.57
2023-03-03T15:37:17.608Z,9.50
2023-03-03T15:40:03.972Z,9.70
2023-03-03T15:42:48.938Z,8.07
2023-03-03T15:45:27.016Z,8.63
2023-03-03T15:48:18.175Z,8.63
2023-03-03T15:51:03.504Z,10.60
2023-03-03T15:53:58.285Z,6.37
2023-03-03T15:56:27.750Z,5.70
2023-03-03T15:59:31.324Z,6.70
2023-03-03T16:02:04.008Z,6.60
2023-03-03T16:04:39.074Z,5.57
2023-03-03T16:07:30.505Z,6.83
2023-03-03T16:10:21.073Z,5.93
2023-03-03T16:12:54.589Z,7.63
2023-03-03T16:15:24.082Z,6.57
2023-03-03T16:18:09.694Z,8.07
2023-03-03T16:20:58.335Z,8.17
2023-03-03T16:23:30.912Z,6.90
2023-03-03T16:26:19.339Z,8.33
2023-03-03T16:29:08.320Z,7.90
2023-03-03T16:31:42.864Z,7.83
2023-03-03T16:34:31.185Z,8.00
2023-03-03T16:37:09.530Z,8.30
2023-03-03T16:39:56.870Z,8.47
2023-03-03T16:42:33.949Z,7.40
2023-03-03T16:45:16.910Z,10.77
2023-03-03T16:47:58.819Z,8.83
2023-03-03T16:50:39.720Z,8.40
2023-03-03T16:53:19.075Z,8.17
2023-03-03T16:56:14.687Z,10.50
2023-03-03T16:58:53.613Z,9.57
2023-03-03T17:01:36.757Z,9.17
2023-03-03T17:04:15.610Z,10.50
2023-03-03T17:06:53.759Z,8.90
2023-03-03T17:09:53.143Z,10.00
2023-03-03T17:12:25.874Z,8.60
2023-03-03T17:15:31.092Z,8.60
2023-03-03T17:18:12.343Z,10.93
2023-03-03T17:20:55.158Z,9.50
2023-03-03T17:23:27.594Z,10.60
2023-03-03T17:26:04.208Z,9.50
2023-03-03T17:28:47.053Z,10.17
2023-03-03T17:31:44.023Z,10.67
2023-03-03T17:34:30.118Z,10.47
2023-03-03T17:37:07.060Z,9.43
2023-03-03T17:39:48.931Z,9.70
2023-03-03T17:42:30.344Z,9.37
2023-03-03T17:44:59.698Z,12.23
2023-03-03T17:47:57.530Z,10.90
2023-03-03T17:50:27.108Z,11.57
2023-03-03T17:53:15.607Z,11.00
2023-03-03T17:56:05.945Z,11.70
2023-03-03T17:59:04.999Z,13.23
2023-03-03T18:01:56.423Z,11.33
2023-03-03T18:04:54.693Z,11.17
2023-03-03T18:07:45.482Z,10.80
2023-03-03T18:10:49.840Z,10.60
2023-03-03T18:13:35.689Z,10.87
2023-03-03T18:16:40.420Z,10.53
2023-03-03T18:19:25.210Z,11.90
2023-03-03T18:22:11.285Z,11.57
2023-03-03T18:24:51.200Z,11.70
2023-03-03T18:27:25.343Z,12.17
2023-03-03T18:30:15.327Z,12.50
2023-03-03T18:33:06.203Z,11.13
2023-03-03T18:35:32.818Z,14.87
2023-03-03T18:38:24.535Z,12.30
2023-03-03T18:40:51.105Z,12.57
2023-03-03T18:43:45.539Z,13.57
2023-03-03T18:46:22.728Z,11.83
2023-03-03T18:48:55.511Z,14.73
2023-03-03T18:51:34.366Z,12.93
2023-03-03T18:54:30.565Z,13.83
2023-03-03T18:56:57.457Z,11.93
2023-03-03T18:59:36.493Z,11.93
2023-03-03T19:02:21.158Z,11.90
2023-03-03T19:05:11.510Z,13.70
2023-03-03T19:07:40.981Z,11.83
2023-03-03T19:10:19.920Z,11.93
2023-03-03T19:12:57.687Z,11.90
2023-03-03T19:15:30.289Z,13.90
2023-03-03T19:18:20.052Z,13.57
2023-03-03T19:20:55.790Z,10.67
2023-03-03T19:24:02.625Z,12.07
2023-03-03T19:26:47.915Z,16.37
2023-03-03T19:29:39.245Z,14.87
2023-03-03T19:32:14.992Z,14.77
2023-03-03T19:35:05.897Z,16.90
2023-03-03T19:38:02.272Z,15.93
2023-03-03T19:40:28.924Z,15.77
2023-03-03T19:43:00.556Z,16.10
2023-03-03T19:45:46.920Z,17.03
2023-03-03T19:48:22.955Z,15.33
2023-03-03T19:51:12.919Z,16.70
2023-03-03T19:53:57.996Z,14.87
2023-03-03T19:56:30.512Z,15.80
2023-03-03T19:59:18.654Z,15.10
2023-03-03T20:01:54.156Z,17.07
2023-03-03T20:04:26.969Z,18.13
2023-03-03T20:07:12.573Z,17.60
2023-03-03T20:09:39.121Z,17.10
2023-03-03T20:12:20.979Z,17.13
2023-03-03T20:14:50.410Z,15.30
2023-03-03T20:17:44.747Z,14.90
2023-03-03T20:20:23.576Z,17.17
2023-03-03T20:23:20.152Z,15.10
2023-03-03T20:26:18.111Z,17.07
2023-03-03T20:28:56.800Z,14.70
2023-03-03T20:31:36.424Z,15.40
2023-03-03T20:34:21.487Z,15.60
2023-03-03T20:36:57.173Z,16.50
2023-03-03T20:39:42.360Z,14.77
2023-03-03T20:42:24.220Z,15.53
2023-03-03T20:45:21.205Z,16.17
2023-03-03T20:48:06.650Z,13.63
2023-03-03T20:51:02.495Z,16.23
2023-03-03T20:53:51.245Z,14.67
2023-03-03T20:56:32.531Z,16.20
2023-03-03T20:59:13.018Z,12.77
2023-03-03T21:01:53.187Z,16.20
2023-03-03T21:04:29.064Z,14.90
2023-03-03T21:06:56.740Z,16.00
2023-03-03T21:09:33.191Z,15.87
2023-03-03T21:12:01.964Z,14.47
2023-03-03T21:14:31.491Z,16.23
2023-03-03T21:17:25.483Z,15.00
2023-03-03T21:19:52.138Z,17.80
2023-03-03T21:22:18.746Z,13.60
2023-03-03T21:24:59.237Z,14.90
2023-03-03T21:27:31.763Z,16.27
2023-03-03T21:30:05.463Z,13.33
2023-03-03T21:32:51.314Z,17.60
2023-03-03T21:35:22.232Z,15.40
2023-03-03T21:37:54.876Z,15.10
2023-03-03T21:40:29.920Z,18.67
2023-03-03T21:43:01.362Z,15.70
2023-03-03T21:45:30.126Z,17.40
2023-03-03T21:47:59.689Z,16.70
2023-03-03T21:50:31.216Z,14.47
2023-03-03T21:52:57.865Z,16.43
2023-03-03T21:55:26.540Z,15.47
2023-03-03T21:57:53.379Z,15.40
2023-03-03T22:00:20.333Z,14.70
2023-03-03T22:02:46.992Z,14.73
2023-03-03T22:05:13.654Z,13.07
2023-03-03T22:07:40.302Z,14.00
2023-03-03T22:10:07.713Z,15.47
2023-03-03T22:12:34.320Z,13.67
2023-03-03T22:15:00.969Z,16.37
2023-03-03T22:17:28.142Z,16.03
2023-03-03T22:19:55.644Z,13.67
2023-03-03T22:22:22.416Z,13.93
2023-03-03T22:24:49.938Z,15.20
2023-03-03T22:27:16.573Z,13.23
2023-03-03T22:29:43.148Z,15.57
2023-03-03T22:32:09.970Z,12.83
2023-03-03T22:34:36.693Z,15.60
2023-03-03T22:37:03.329Z,15.70
2023-03-03T22:39:29.978Z,14.00
2023-03-03T22:41:56.569Z,14.77
2023-03-03T22:44:23.217Z,14.47
2023-03-03T22:46:49.809Z,15.83
2023-03-03T22:49:16.445Z,16.80
2023-03-03T22:51:43.046Z,15.70
2023-03-03T22:54:09.666Z,15.83
2023-03-03T22:56:36.244Z,13.23
2023-03-03T22:59:02.867Z,15.80
2023-03-03T23:01:30.152Z,12.77
2023-03-03T23:03:56.802Z,14.30
2023-03-03T23:06:23.426Z,16.03
2023-03-03T23:08:50.063Z,15.60
2023-03-03T23:11:16.678Z,13.77
2023-03-03T23:13:43.292Z,13.00
2023-03-03T23:16:10.021Z,13.60
2023-03-03T23:18:36.647Z,13.70
2023-03-03T23:21:03.407Z,14.57
2023-03-03T23:23:30.602Z,14.63
2023-03-03T23:25:57.360Z,14.30
2023-03-03T23:28:24.007Z,14.77
2023-03-03T23:30:52.182Z,13.03
2023-03-03T23:33:19.851Z,13.87
2023-03-03T23:35:46.599Z,13.93
2023-03-03T23:38:15.532Z,13.00
2023-03-03T23:40:43.138Z,14.03
2023-03-03T23:43:10.165Z,15.50
2023-03-03T23:45:36.786Z,12.33
2023-03-03T23:48:03.733Z,13.87
2023-03-03T23:50:32.796Z,13.70
2023-03-03T23:52:59.512Z,14.60
2023-03-03T23:55:26.088Z,12.03
2023-03-03T23:57:52.754Z,14.27
